Accueil
METAR-TAF:

METAR-TAF

Aéroports :

Farnborough, Angleterre

latitude: 51-17N, longitude: 000-46W, altitude: 65 m

Observation

Le bulletin a été fait il y a 22 minutes, à 17:50 UTC
Vent 12 kt de sud-ouest
Température 20°C
Humidité 73%
Pression 1016 hPa
Visibilité 10 km ou plus
Quelques nuages à une hauteur de 2300 ft
Nuages épars à une hauteur de 3600 ft

METAR: EGLF 151750Z 22012KT 9999 FEW023 SCT036 20/15 Q1016

Heure: 19:12 (18:12 UTC)

Prévision

Le bulletin a été fait il y a 1 heure et 12 minutes, à 17:00 UTC
Prévision valable du 15 à 18 UTC au 15 à 21 UTC
Vent 12 kt de sud-ouest
Visibilité 10 km ou plus
Nuages fragmentés à une hauteur de 3200 ft

TAF: EGLF 151700Z 1518/1521 23012KT 9999 BKN032

Observations et prévisions météorologiques de plus de 4000 aéroports (messages METAR et TAF).

Les stations disponibles sont représentées par des disques jaunes et rouges sur la carte.

Passer la souris dessus pour voir le nom de la station.

Cliquer dessus pour voir les observations et prévisions météorologiques.

Pour changer de carte: cliquez sur les boutons verts avec une croix noire pour zoomer, sur le bouton vert avec un tiret pour effectuer un zoom arrière, ou sur les flèches vertes pour les cartes adjacentes.


METAR-TAF: